Time;durP1;ratioP1;P1;durP2;ratioP2;P2;SDS_P1;SDS_P2;PMS_P1;PMS_P2;Temp;Humidity;BMP_temperature;BMP_pressure;BME280_temperature;BME280_humidity;BME280_pressure;Samples;Min_cycle;Max_cycle;Signal;HPM_P1;HPM_P2
2022/09/15 00:01:22;;;;;;;28.50;11.43;;;;;;;-144.48;100.00;62369.91;4972960;28;20022;-67
2022/09/15 00:03:48;;;;;;;23.65;11.45;;;;;;;-144.48;100.00;62369.91;4967549;28;20023;-67
2022/09/15 00:06:14;;;;;;;29.73;11.65;;;;;;;-144.48;100.00;62369.91;4971221;28;20022;-65
2022/09/15 00:08:40;;;;;;;27.75;12.50;;;;;;;-144.48;100.00;62369.91;4973474;28;20093;-64
2022/09/15 00:11:10;;;;;;;26.95;11.73;;;;;;;-144.48;100.00;62369.91;4973725;28;20422;-66
2022/09/15 00:13:37;;;;;;;29.15;12.25;;;;;;;-144.48;100.00;62369.91;4978039;28;20030;-65
2022/09/15 00:16:03;;;;;;;29.75;12.25;;;;;;;-144.48;100.00;62369.91;4952894;28;20027;-63
2022/09/15 00:18:29;;;;;;;27.88;11.55;;;;;;;-144.48;100.00;62369.91;4968252;28;20027;-66
2022/09/15 00:20:54;;;;;;;28.73;11.55;;;;;;;-144.48;100.00;62369.91;4972550;28;20476;-65
2022/09/15 00:23:20;;;;;;;35.42;12.63;;;;;;;-144.48;100.00;62369.91;4972283;28;20043;-65
2022/09/15 00:25:50;;;;;;;32.38;13.30;;;;;;;-144.48;100.00;62369.91;4973427;28;20500;-67
2022/09/15 00:28:17;;;;;;;40.50;13.00;;;;;;;-144.48;100.00;62369.91;4971960;28;20038;-67
2022/09/15 00:30:45;;;;;;;33.13;12.02;;;;;;;-144.48;100.00;62369.91;4972546;28;20034;-65
2022/09/15 00:33:11;;;;;;;32.03;12.27;;;;;;;-144.48;100.00;62369.91;4972126;28;20015;-67
2022/09/15 00:35:38;;;;;;;33.13;12.45;;;;;;;-144.48;100.00;62369.91;4971182;28;20066;-67
2022/09/15 00:38:04;;;;;;;28.85;11.82;;;;;;;-144.48;100.00;62369.91;4971118;28;20026;-66
2022/09/15 00:40:29;;;;;;;29.80;12.07;;;;;;;-144.48;100.00;62369.91;4972276;28;20067;-67
2022/09/15 00:42:55;;;;;;;36.65;12.82;;;;;;;-144.48;100.00;62369.91;4982558;28;20026;-67
2022/09/15 00:45:20;;;;;;;42.70;13.25;;;;;;;-144.48;100.00;62369.91;4972873;28;20480;-63
2022/09/15 00:47:45;;;;;;;26.55;11.35;;;;;;;-144.48;100.00;62369.91;4967932;28;20054;-67
2022/09/15 00:50:15;;;;;;;33.85;12.07;;;;;;;-144.48;100.00;62369.91;4972480;28;20081;-66
2022/09/15 00:52:43;;;;;;;29.17;13.27;;;;;;;-144.48;100.00;62369.91;4970573;28;20433;-64
2022/09/15 00:55:18;;;;;;;29.17;11.80;;;;;;;-144.48;100.00;62369.91;4971639;28;20018;-67
2022/09/15 00:58:05;;;;;;;29.98;12.30;;;;;;;-144.48;100.00;62369.91;4977132;28;20440;-66
2022/09/15 01:00:31;;;;;;;31.38;12.50;;;;;;;-144.48;100.00;62369.91;4971788;28;20062;-66
2022/09/15 01:02:58;;;;;;;35.17;13.50;;;;;;;-144.48;100.00;62369.91;4971944;28;20374;-64
2022/09/15 01:05:28;;;;;;;36.58;12.77;;;;;;;-144.48;100.00;62369.91;4970842;28;20018;-67
2022/09/15 01:08:02;;;;;;;33.28;12.93;;;;;;;-144.48;100.00;62369.91;4970374;28;20154;-66
2022/09/15 01:10:29;;;;;;;29.58;11.60;;;;;;;-144.48;100.00;62369.91;4971634;28;20019;-65
2022/09/15 01:12:58;;;;;;;27.05;11.57;;;;;;;-144.48;100.00;62369.91;4973589;28;20030;-67
2022/09/15 01:15:31;;;;;;;39.90;13.32;;;;;;;-144.48;100.00;62369.91;4971931;28;20531;-66
2022/09/15 01:18:44;;;;;;;36.50;11.88;;;;;;;-144.48;100.00;62369.91;4969991;28;20145;-66
2022/09/15 01:21:33;;;;;;;24.50;10.95;;;;;;;-144.48;100.00;62369.91;4963594;28;20045;-64
2022/09/15 01:24:34;;;;;;;31.75;11.98;;;;;;;-144.48;100.00;62369.91;4969939;28;20385;-66
2022/09/15 01:27:10;;;;;;;29.52;12.93;;;;;;;-144.48;100.00;62369.91;4947978;28;20043;-66
2022/09/15 01:30:00;;;;;;;36.70;13.88;;;;;;;-144.48;100.00;62369.91;4965303;28;20030;-65
2022/09/15 01:33:03;;;;;;;32.00;11.85;;;;;;;-144.48;100.00;62369.91;4971712;28;20023;-66
2022/09/15 01:35:39;;;;;;;32.83;13.40;;;;;;;-144.48;100.00;62369.91;4959813;28;20111;-67
2022/09/15 01:38:29;;;;;;;31.60;13.65;;;;;;;-144.48;100.00;62369.91;4970113;28;20034;-66
2022/09/15 01:41:19;;;;;;;33.45;13.73;;;;;;;-144.48;100.00;62369.91;4971462;28;20039;-67
2022/09/15 01:44:32;;;;;;;30.58;12.90;;;;;;;-144.48;100.00;62369.91;4965975;28;20046;-65
2022/09/15 01:47:02;;;;;;;44.08;14.98;;;;;;;-144.48;100.00;62369.91;4970184;28;20034;-68
2022/09/15 01:49:33;;;;;;;31.83;14.32;;;;;;;-144.48;100.00;62369.91;4970167;28;20030;-67
2022/09/15 01:51:59;;;;;;;37.38;14.52;;;;;;;-144.48;100.00;62369.91;4970683;28;20019;-66
2022/09/15 01:54:31;;;;;;;40.88;15.57;;;;;;;-144.48;100.00;62369.91;4969546;28;20109;-67
2022/09/15 01:56:57;;;;;;;37.28;14.88;;;;;;;-144.48;100.00;62369.91;4970779;28;20037;-67
2022/09/15 01:59:23;;;;;;;41.25;15.43;;;;;;;-144.48;100.00;62369.91;4982481;28;20393;-67
2022/09/15 02:01:57;;;;;;;42.33;15.18;;;;;;;-144.48;100.00;62369.91;4971183;28;20507;-65
2022/09/15 02:04:40;;;;;;;42.45;15.07;;;;;;;-144.48;100.00;62369.91;4970422;28;20501;-67
2022/09/15 02:07:12;;;;;;;33.92;16.45;;;;;;;-144.48;100.00;62369.91;4969331;28;20574;-67
2022/09/15 02:09:51;;;;;;;31.35;13.95;;;;;;;-144.48;100.00;62369.91;4971104;28;20396;-66
2022/09/15 02:12:23;;;;;;;29.65;14.15;;;;;;;-144.48;100.00;62369.91;4971389;28;20023;-65
2022/09/15 02:15:06;;;;;;;35.15;15.32;;;;;;;-144.48;100.00;62369.91;4979560;28;20035;-66
2022/09/15 02:17:37;;;;;;;39.85;14.63;;;;;;;-144.48;100.00;62369.91;4957581;28;20477;-66
2022/09/15 02:20:08;;;;;;;37.17;14.93;;;;;;;-144.48;100.00;62369.91;4971118;28;20110;-65
2022/09/15 02:22:39;;;;;;;36.83;14.80;;;;;;;-144.48;100.00;62369.91;4970648;28;20114;-66
2022/09/15 02:25:12;;;;;;;45.45;15.63;;;;;;;-144.48;100.00;62369.91;4969985;28;20482;-67
2022/09/15 02:27:43;;;;;;;37.00;15.30;;;;;;;-144.48;100.00;62369.91;4970548;28;20093;-66
2022/09/15 02:30:11;;;;;;;30.70;13.43;;;;;;;-144.48;100.00;62369.91;4972321;28;20034;-67
2022/09/15 02:32:45;;;;;;;30.75;13.13;;;;;;;-144.48;100.00;62369.91;4969043;28;20031;-67
2022/09/15 02:35:12;;;;;;;27.75;13.48;;;;;;;-144.48;100.00;62369.91;4969771;28;20031;-66
2022/09/15 02:37:37;;;;;;;28.92;14.30;;;;;;;-144.48;100.00;62369.91;4969376;28;20038;-67
2022/09/15 02:40:04;;;;;;;37.70;14.30;;;;;;;-144.48;100.00;62369.91;4971528;28;20023;-67
2022/09/15 02:42:31;;;;;;;36.60;15.52;;;;;;;-144.48;100.00;62369.91;4971539;28;20027;-68
2022/09/15 02:44:58;;;;;;;35.28;14.63;;;;;;;-144.48;100.00;62369.91;4983674;28;20035;-66
2022/09/15 02:47:24;;;;;;;35.88;14.20;;;;;;;-144.48;100.00;62369.91;4968766;28;20105;-65
2022/09/15 02:49:50;;;;;;;36.15;15.98;;;;;;;-144.48;100.00;62369.91;4957934;28;20054;-66
2022/09/15 02:52:15;;;;;;;35.22;14.40;;;;;;;-144.48;100.00;62369.91;4971518;28;20043;-65
2022/09/15 02:54:40;;;;;;;29.42;14.07;;;;;;;-144.48;100.00;62369.91;4971288;28;20067;-65
2022/09/15 02:57:06;;;;;;;36.95;15.00;;;;;;;-144.48;100.00;62369.91;4969836;28;20027;-66
2022/09/15 03:02:19;;;;;;;35.22;14.93;;;;;;;-144.48;100.00;62369.91;4974166;28;20038;-67
2022/09/15 03:04:47;;;;;;;36.25;16.48;;;;;;;-144.48;100.00;62369.91;4973931;28;20745;-65
2022/09/15 03:07:13;;;;;;;42.15;16.65;;;;;;;-144.48;100.00;62369.91;4971641;28;20023;-68
2022/09/15 03:09:38;;;;;;;40.78;16.67;;;;;;;-144.48;100.00;62369.91;4975771;28;20073;-68
2022/09/15 03:12:04;;;;;;;43.50;16.77;;;;;;;-144.48;100.00;62369.91;4975733;28;20683;-67
2022/09/15 03:14:31;;;;;;;44.28;16.45;;;;;;;-144.48;100.00;62369.91;4977853;28;20037;-66
2022/09/15 03:16:57;;;;;;;40.05;17.80;;;;;;;-144.48;100.00;62369.91;4973303;28;20039;-64
2022/09/15 03:19:23;;;;;;;39.05;16.35;;;;;;;-144.48;100.00;62369.91;4970918;28;20030;-67
2022/09/15 03:21:48;;;;;;;39.42;16.42;;;;;;;-144.48;100.00;62369.91;4973931;28;20042;-66
2022/09/15 03:24:14;;;;;;;48.92;15.85;;;;;;;-144.48;100.00;62369.91;4974574;28;20038;-67
2022/09/15 03:26:39;;;;;;;37.22;16.13;;;;;;;-144.48;100.00;62369.91;4974244;28;20378;-67
2022/09/15 03:29:05;;;;;;;34.40;14.63;;;;;;;-144.48;100.00;62369.91;4984476;28;20073;-65
2022/09/15 03:31:30;;;;;;;42.10;15.88;;;;;;;-144.48;100.00;62369.91;4978608;28;20030;-66
2022/09/15 03:33:56;;;;;;;42.60;16.08;;;;;;;-144.48;100.00;62369.91;4973545;28;20037;-65
2022/09/15 03:36:22;;;;;;;37.55;16.05;;;;;;;-144.48;100.00;62369.91;4972205;28;20033;-67
2022/09/15 03:38:47;;;;;;;39.10;15.68;;;;;;;-144.48;100.00;62369.91;4973232;28;20027;-64
2022/09/15 03:41:12;;;;;;;45.15;15.77;;;;;;;-144.48;100.00;62369.91;4973709;28;20031;-66
2022/09/15 03:43:38;;;;;;;47.88;18.08;;;;;;;-144.48;100.00;62369.91;4978801;28;20026;-67
2022/09/15 03:46:05;;;;;;;37.70;16.88;;;;;;;-144.48;100.00;62369.91;4977256;28;20448;-65
2022/09/15 03:48:33;;;;;;;39.35;16.48;;;;;;;-144.48;100.00;62369.91;4971721;28;20081;-66
2022/09/15 03:50:59;;;;;;;41.28;15.27;;;;;;;-144.48;100.00;62369.91;4972774;28;20485;-65
2022/09/15 03:53:25;;;;;;;36.40;15.95;;;;;;;-144.48;100.00;62369.91;4972904;28;20093;-66
2022/09/15 03:55:50;;;;;;;37.15;15.35;;;;;;;-144.48;100.00;62369.91;4973610;28;20101;-66
2022/09/15 03:58:17;;;;;;;39.70;17.33;;;;;;;-144.48;100.00;62369.91;4973497;28;20031;-69
2022/09/15 04:00:43;;;;;;;39.90;17.92;;;;;;;-144.48;100.00;62369.91;4977200;28;20101;-66
2022/09/15 04:03:09;;;;;;;31.23;14.52;;;;;;;-144.48;100.00;62369.91;4971256;28;20023;-68
2022/09/15 04:05:35;;;;;;;48.90;17.77;;;;;;;-144.48;100.00;62369.91;4972131;28;20486;-65
2022/09/15 04:08:00;;;;;;;36.90;15.07;;;;;;;-144.48;100.00;62369.91;4972437;28;20645;-67
2022/09/15 04:10:26;;;;;;;40.45;16.67;;;;;;;-144.48;100.00;62369.91;4972201;28;20142;-65
2022/09/15 04:12:52;;;;;;;38.75;17.23;;;;;;;-144.48;100.00;62369.91;4972957;28;20097;-67
2022/09/15 04:15:18;;;;;;;43.80;17.38;;;;;;;-144.48;100.00;62369.91;4969313;28;20027;-66
2022/09/15 04:17:45;;;;;;;42.42;16.10;;;;;;;-144.48;100.00;62369.91;4962890;28;20435;-67
2022/09/15 04:20:11;;;;;;;38.78;15.32;;;;;;;-144.48;100.00;62369.91;4972157;28;20540;-67
2022/09/15 04:22:36;;;;;;;39.20;17.10;;;;;;;-144.48;100.00;62369.91;4970681;28;20117;-67
2022/09/15 04:25:02;;;;;;;40.80;18.98;;;;;;;-144.48;100.00;62369.91;4972837;28;20022;-66
2022/09/15 04:27:28;;;;;;;43.72;17.58;;;;;;;-144.48;100.00;62369.91;4970686;28;20045;-67
2022/09/15 04:29:53;;;;;;;39.25;16.73;;;;;;;-144.48;100.00;62369.91;4982785;28;20066;-64
2022/09/15 04:32:19;;;;;;;34.97;16.83;;;;;;;-144.48;100.00;62369.91;4972350;28;20025;-68
2022/09/15 04:34:45;;;;;;;38.60;15.75;;;;;;;-144.48;100.00;62369.91;4998072;23;20050;-69
2022/09/15 04:37:11;;;;;;;34.55;15.25;;;;;;;-144.48;100.00;62369.91;4970866;28;20023;-69
2022/09/15 04:39:37;;;;;;;38.03;15.75;;;;;;;-144.48;100.00;62369.91;4971795;28;20030;-71
2022/09/15 04:42:04;;;;;;;35.80;17.20;;;;;;;-144.48;100.00;62369.91;4971686;28;20050;-71
2022/09/15 04:44:30;;;;;;;31.33;15.15;;;;;;;-144.48;100.00;62369.91;4970510;28;20037;-72
2022/09/15 04:46:55;;;;;;;43.50;17.50;;;;;;;-144.48;100.00;62369.91;4967916;28;20397;-67
2022/09/15 04:49:20;;;;;;;34.35;16.02;;;;;;;-144.48;100.00;62369.91;4972195;28;20030;-70
2022/09/15 04:51:46;;;;;;;35.20;16.42;;;;;;;-144.48;100.00;62369.91;4958688;28;20031;-69
2022/09/15 04:54:11;;;;;;;42.55;16.55;;;;;;;-144.48;100.00;62369.91;4971595;28;20029;-71
2022/09/15 04:56:37;;;;;;;35.90;16.45;;;;;;;-144.48;100.00;62369.91;4970944;28;20065;-69
2022/09/15 04:59:03;;;;;;;36.35;16.08;;;;;;;-144.48;100.00;62369.91;4971763;28;20037;-72
2022/09/15 05:01:30;;;;;;;40.95;17.55;;;;;;;-144.48;100.00;62369.91;4971980;28;20027;-69
2022/09/15 05:03:56;;;;;;;59.28;20.20;;;;;;;-144.48;100.00;62369.91;4966916;28;20110;-70
2022/09/15 05:06:23;;;;;;;43.28;19.05;;;;;;;-144.48;100.00;62369.91;4980108;28;20117;-70
2022/09/15 05:08:50;;;;;;;49.50;18.65;;;;;;;-144.48;100.00;62369.91;4971043;28;20113;-71
2022/09/15 05:11:16;;;;;;;45.72;18.77;;;;;;;-144.48;100.00;62369.91;4971660;28;20114;-70
2022/09/15 05:13:41;;;;;;;42.38;18.80;;;;;;;-144.48;100.00;62369.91;4965588;28;20106;-70
2022/09/15 05:16:21;;;;;;;46.92;18.80;;;;;;;-144.48;100.00;62369.91;4968127;28;20121;-71
2022/09/15 05:18:48;;;;;;;53.78;18.05;;;;;;;-144.48;100.00;62369.91;4970856;28;20026;-70
2022/09/15 05:21:15;;;;;;;41.40;17.58;;;;;;;-144.48;100.00;62369.91;4971876;28;20023;-71
2022/09/15 05:23:41;;;;;;;43.75;19.90;;;;;;;-144.48;100.00;62369.91;4970521;28;20512;-72
2022/09/15 05:26:11;;;;;;;41.17;18.08;;;;;;;-144.48;100.00;62369.91;4969443;28;20057;-70
2022/09/15 05:28:37;;;;;;;36.10;17.20;;;;;;;-144.48;100.00;62369.91;4970652;28;20027;-70
2022/09/15 05:31:11;;;;;;;43.30;19.23;;;;;;;-144.48;100.00;62369.91;4971079;28;20105;-69
2022/09/15 05:33:36;;;;;;;48.03;19.35;;;;;;;-144.48;100.00;62369.91;4972310;28;20070;-70
2022/09/15 05:36:03;;;;;;;45.13;19.50;;;;;;;-144.48;100.00;62369.91;4975330;28;20027;-71
2022/09/15 05:38:30;;;;;;;41.97;18.13;;;;;;;-144.48;100.00;62369.91;4969923;28;20157;-73
2022/09/15 05:41:07;;;;;;;42.00;19.42;;;;;;;-144.48;100.00;62369.91;4970584;28;20080;-72
2022/09/15 05:43:34;;;;;;;56.30;20.50;;;;;;;-144.48;100.00;62369.91;4969961;28;20030;-70
2022/09/15 05:46:01;;;;;;;36.40;18.83;;;;;;;-144.48;100.00;62369.91;4968180;28;20034;-72
2022/09/15 05:48:26;;;;;;;43.80;19.45;;;;;;;-144.48;100.00;62369.91;4970097;28;20026;-72
2022/09/15 05:50:53;;;;;;;38.70;19.85;;;;;;;-144.48;100.00;62369.91;4968065;28;20030;-72
2022/09/15 05:53:19;;;;;;;38.78;17.85;;;;;;;-144.48;100.00;62369.91;4970110;28;20050;-69
2022/09/15 05:55:45;;;;;;;45.53;19.80;;;;;;;-144.48;100.00;62369.91;4970999;28;20026;-70
2022/09/15 05:58:11;;;;;;;38.85;18.67;;;;;;;-144.48;100.00;62369.91;4969423;28;20033;-69
2022/09/15 06:00:37;;;;;;;44.42;20.67;;;;;;;-144.48;100.00;62369.91;4970054;28;20085;-70
2022/09/15 06:03:03;;;;;;;53.05;21.30;;;;;;;-144.48;100.00;62369.91;4970034;28;20473;-70
2022/09/15 06:05:29;;;;;;;45.47;20.67;;;;;;;-144.48;100.00;62369.91;4969566;28;20018;-71
2022/09/15 06:07:55;;;;;;;45.92;20.77;;;;;;;-144.48;100.00;62369.91;4977964;28;20066;-71
2022/09/15 06:10:23;;;;;;;48.92;21.98;;;;;;;-144.48;100.00;62369.91;4970424;28;20101;-68
2022/09/15 06:12:51;;;;;;;52.45;22.08;;;;;;;-144.48;100.00;62369.91;4967639;28;20015;-70
2022/09/15 06:15:16;;;;;;;44.85;21.60;;;;;;;-144.48;100.00;62369.91;4961181;28;20366;-69
2022/09/15 06:17:41;;;;;;;42.75;20.10;;;;;;;-144.48;100.00;62369.91;4970512;28;20073;-68
2022/09/15 06:20:07;;;;;;;44.15;20.17;;;;;;;-144.48;100.00;62369.91;4969790;28;20534;-71
2022/09/15 06:22:32;;;;;;;51.85;22.60;;;;;;;-144.48;100.00;62369.91;4969833;28;20866;-68
2022/09/15 06:24:58;;;;;;;43.60;20.02;;;;;;;-144.48;100.00;62369.91;4970387;28;20066;-70
2022/09/15 06:27:24;;;;;;;45.90;20.55;;;;;;;-144.48;100.00;62369.91;4971253;28;20543;-71
2022/09/15 06:29:50;;;;;;;44.67;20.13;;;;;;;-144.48;100.00;62369.91;4970451;28;20266;-71
2022/09/15 06:32:15;;;;;;;38.38;17.83;;;;;;;-144.48;100.00;62369.91;4970575;28;20039;-70
2022/09/15 06:34:40;;;;;;;35.97;17.33;;;;;;;-144.48;100.00;62369.91;4971193;28;20823;-71
2022/09/15 06:37:06;;;;;;;41.75;19.23;;;;;;;-144.48;100.00;62369.91;4973096;28;20035;-73
2022/09/15 06:39:32;;;;;;;41.47;19.63;;;;;;;-144.48;100.00;62369.91;4974087;28;20022;-70
2022/09/15 06:41:57;;;;;;;39.13;17.85;;;;;;;-144.48;100.00;62369.91;4979855;28;20034;-68
2022/09/15 06:44:23;;;;;;;35.97;17.95;;;;;;;-144.48;100.00;62369.91;4974472;28;20038;-71
2022/09/15 06:46:48;;;;;;;46.63;19.90;;;;;;;-144.48;100.00;62369.91;4964904;28;20031;-72
2022/09/15 06:49:14;;;;;;;42.10;19.27;;;;;;;-144.48;100.00;62369.91;4974371;28;20460;-69
2022/09/15 06:51:39;;;;;;;43.25;18.67;;;;;;;-144.48;100.00;62369.91;4972578;28;20026;-68
2022/09/15 06:54:05;;;;;;;40.75;17.92;;;;;;;-144.48;100.00;62369.91;4973677;28;20034;-71
2022/09/15 06:56:31;;;;;;;37.97;18.23;;;;;;;-144.48;100.00;62369.91;4972197;28;20264;-71
2022/09/15 06:58:58;;;;;;;37.13;18.67;;;;;;;-144.48;100.00;62369.91;4973710;28;20042;-71
2022/09/15 07:01:26;;;;;;;41.10;18.90;;;;;;;-144.48;100.00;62369.91;4973111;28;20046;-70
2022/09/15 07:03:53;;;;;;;41.08;18.67;;;;;;;-144.48;100.00;62369.91;4972798;28;20510;-69
2022/09/15 07:06:19;;;;;;;42.03;19.45;;;;;;;-144.48;100.00;62369.91;4970996;28;20514;-72
2022/09/15 07:08:45;;;;;;;36.75;18.80;;;;;;;-144.48;100.00;62369.91;4970261;28;20019;-72
2022/09/15 07:11:11;;;;;;;41.50;19.38;;;;;;;-144.48;100.00;62369.91;4973131;28;20088;-72
2022/09/15 07:13:37;;;;;;;35.78;18.17;;;;;;;-144.48;100.00;62369.91;4975731;28;20520;-71
2022/09/15 07:16:04;;;;;;;41.83;19.67;;;;;;;-144.48;100.00;62369.91;4973652;28;20034;-70
2022/09/15 07:18:31;;;;;;;38.25;18.60;;;;;;;-144.48;100.00;62369.91;4973541;28;20038;-72
2022/09/15 07:20:58;;;;;;;40.17;19.58;;;;;;;-144.48;100.00;62369.91;4973096;28;20633;-70
2022/09/15 07:23:24;;;;;;;38.55;19.00;;;;;;;-144.48;100.00;62369.91;4972861;28;20030;-71
2022/09/15 07:25:49;;;;;;;48.50;19.35;;;;;;;-144.48;100.00;62369.91;4973076;28;20114;-72
2022/09/15 07:28:14;;;;;;;42.47;20.77;;;;;;;-144.48;100.00;62369.91;4977199;28;20034;-68
2022/09/15 07:30:41;;;;;;;34.50;17.38;;;;;;;-144.48;100.00;62369.91;4973246;28;20077;-70
2022/09/15 07:33:08;;;;;;;37.13;17.63;;;;;;;-144.48;100.00;62369.91;4973048;28;20022;-69
2022/09/15 07:35:34;;;;;;;48.20;18.58;;;;;;;-144.48;100.00;62369.91;4963041;28;20109;-68
2022/09/15 07:37:59;;;;;;;37.40;16.98;;;;;;;-144.48;100.00;62369.91;4964563;28;20718;-68
2022/09/15 07:40:26;;;;;;;39.50;17.73;;;;;;;-144.48;100.00;62369.91;4968038;28;20027;-70
2022/09/15 07:42:51;;;;;;;34.67;16.10;;;;;;;-144.48;100.00;62369.91;4972547;28;20035;-68
2022/09/15 07:45:17;;;;;;;35.28;16.77;;;;;;;-144.48;100.00;62369.91;4971611;28;20030;-69
2022/09/15 07:47:42;;;;;;;32.70;15.40;;;;;;;-144.48;100.00;62369.91;4970470;28;20025;-68
2022/09/15 07:50:08;;;;;;;32.42;17.75;;;;;;;-144.48;100.00;62369.91;4971460;28;20045;-68
2022/09/15 07:52:33;;;;;;;31.77;16.73;;;;;;;-144.48;100.00;62369.91;4972445;28;20400;-70
2022/09/15 07:54:58;;;;;;;28.15;14.88;;;;;;;-144.48;100.00;62369.91;4972094;28;20404;-70
2022/09/15 07:57:24;;;;;;;35.78;16.30;;;;;;;-144.48;100.00;62369.91;4972377;28;20033;-68
2022/09/15 07:59:49;;;;;;;43.90;17.25;;;;;;;-144.48;100.00;62369.91;4976579;28;20042;-71
2022/09/15 08:02:16;;;;;;;35.53;15.13;;;;;;;-144.48;100.00;62369.91;4969660;28;20042;-67
2022/09/15 08:04:42;;;;;;;29.67;14.88;;;;;;;-144.48;100.00;62369.91;4961086;28;20034;-70
2022/09/15 08:07:07;;;;;;;29.20;14.85;;;;;;;-144.48;100.00;62369.91;4970071;28;20544;-70
2022/09/15 08:09:33;;;;;;;28.13;15.48;;;;;;;-144.48;100.00;62369.91;4971336;28;20062;-69
2022/09/15 08:11:58;;;;;;;30.85;15.90;;;;;;;-144.48;100.00;62369.91;4970735;28;20080;-70
2022/09/15 08:14:24;;;;;;;28.90;15.52;;;;;;;-144.48;100.00;62369.91;4958310;28;20033;-69
2022/09/15 08:16:49;;;;;;;38.42;17.05;;;;;;;-144.48;100.00;62369.91;4960239;28;20153;-69
2022/09/15 08:19:14;;;;;;;42.72;16.90;;;;;;;-144.48;100.00;62369.91;4972244;28;20396;-67
2022/09/15 08:21:40;;;;;;;36.17;17.67;;;;;;;-144.48;100.00;62369.91;4971460;28;20043;-67
2022/09/15 08:24:05;;;;;;;36.40;19.42;;;;;;;-144.48;100.00;62369.91;4972015;28;20162;-69
2022/09/15 08:26:31;;;;;;;40.50;22.42;;;;;;;-144.48;100.00;62369.91;4970402;28;20022;-69
2022/09/15 08:28:57;;;;;;;47.22;25.40;;;;;;;-144.48;100.00;62369.91;4972885;28;20037;-67
2022/09/15 08:31:23;;;;;;;29.50;17.63;;;;;;;-144.48;100.00;62369.91;4976875;28;20109;-68
2022/09/15 08:33:50;;;;;;;31.38;16.02;;;;;;;-144.48;100.00;62369.91;4971817;28;20022;-69
2022/09/15 08:36:16;;;;;;;37.75;16.25;;;;;;;-144.48;100.00;62369.91;4970850;28;20046;-68
2022/09/15 08:38:43;;;;;;;31.77;14.60;;;;;;;-144.48;100.00;62369.91;4970737;28;20054;-67
2022/09/15 08:41:18;;;;;;;21.67;13.05;;;;;;;-144.48;100.00;62369.91;4971915;28;20035;-68
2022/09/15 08:43:51;;;;;;;27.83;14.35;;;;;;;-144.48;100.00;62369.91;4971795;28;20102;-68
2022/09/15 08:46:24;;;;;;;26.40;14.52;;;;;;;-144.48;100.00;62369.91;4970137;28;20038;-66
2022/09/15 08:48:59;;;;;;;38.47;17.35;;;;;;;-144.48;100.00;62369.91;4970971;28;20110;-68
2022/09/15 08:51:31;;;;;;;38.83;22.85;;;;;;;-144.48;100.00;62369.91;4970624;28;20038;-67
2022/09/15 08:54:08;;;;;;;40.03;24.00;;;;;;;-144.48;100.00;62369.91;4971288;28;20030;-68
2022/09/15 08:56:35;;;;;;;39.33;23.80;;;;;;;-144.48;100.00;62369.91;4970596;28;20042;-71
2022/09/15 08:59:01;;;;;;;33.85;22.05;;;;;;;-144.48;100.00;62369.91;4971923;28;20436;-71
2022/09/15 09:02:01;;;;;;;32.80;16.15;;;;;;;-144.48;100.00;62369.91;4972803;28;20981;-66
2022/09/15 09:04:39;;;;;;;28.73;15.57;;;;;;;-144.48;100.00;62369.91;4976672;28;20054;-69
2022/09/15 09:07:33;;;;;;;24.10;14.13;;;;;;;-144.48;100.00;62369.91;4970361;28;20027;-68
2022/09/15 09:10:31;;;;;;;30.77;15.52;;;;;;;-144.48;100.00;62369.91;4971307;28;20027;-69
2022/09/15 09:13:20;;;;;;;25.40;16.45;;;;;;;-144.48;100.00;62369.91;4965669;28;20035;-69
2022/09/15 09:15:48;;;;;;;;;;;;;;;-144.48;100.00;62369.91;4973404;28;20043;-68
2022/09/15 09:18:38;;;;;;;30.75;15.15;;;;;;;-144.48;100.00;62369.91;4973147;28;19910;-68
2022/09/15 09:21:12;;;;;;;41.22;15.25;;;;;;;-144.48;100.00;62369.91;4967033;28;20096;-70
2022/09/15 09:23:51;;;;;;;27.77;13.23;;;;;;;-144.48;100.00;62369.91;4971145;28;20066;-70
2022/09/15 09:26:19;;;;;;;;;;;;;;;-144.48;100.00;62369.91;4970721;28;20023;-70
2022/09/15 09:28:54;;;;;;;34.30;12.75;;;;;;;-144.48;100.00;62369.91;4971440;28;19953;-67
2022/09/15 09:31:22;;;;;;;23.80;12.32;;;;;;;-144.48;100.00;62369.91;4970763;28;20544;-69
2022/09/15 09:34:14;;;;;;;30.90;12.38;;;;;;;-144.48;100.00;62369.91;4971216;28;20037;-66
2022/09/15 09:36:41;;;;;;;24.70;11.57;;;;;;;-144.48;100.00;62369.91;4969293;28;20046;-70
2022/09/15 09:39:12;;;;;;;26.45;11.48;;;;;;;-144.48;100.00;62369.91;4971096;28;20536;-70
2022/09/15 09:41:37;;;;;;;19.75;11.15;;;;;;;-144.48;100.00;62369.91;4969535;28;20074;-67
2022/09/15 09:44:09;;;;;;;22.70;10.45;;;;;;;-144.48;100.00;62369.91;4970689;28;20026;-69
2022/09/15 09:46:34;;;;;;;24.60;11.45;;;;;;;-144.48;100.00;62369.91;4969629;28;20082;-70
2022/09/15 09:49:22;;;;;;;17.17;9.52;;;;;;;-144.48;100.00;62369.91;4974929;28;20023;-70
2022/09/15 09:51:50;;;;;;;15.60;9.18;;;;;;;-144.48;100.00;62369.91;4970789;28;20524;-71
2022/09/15 09:54:19;;;;;;;14.77;8.23;;;;;;;-144.48;100.00;62369.91;4971143;28;20030;-68
2022/09/15 09:56:49;;;;;;;18.45;6.95;;;;;;;-144.48;100.00;62369.91;4969831;28;20041;-69
2022/09/15 09:59:45;;;;;;;12.38;6.60;;;;;;;-144.48;100.00;62369.91;4970821;28;20037;-69
2022/09/15 10:02:11;;;;;;;19.73;6.63;;;;;;;-144.48;100.00;62369.91;4958977;28;20034;-68
2022/09/15 10:04:42;;;;;;;18.17;7.05;;;;;;;-144.48;100.00;62369.91;4975979;28;20234;-70
2022/09/15 10:07:09;;;;;;;10.90;6.13;;;;;;;-144.48;100.00;62369.91;4969085;28;20023;-69
2022/09/15 10:09:36;;;;;;;16.95;6.63;;;;;;;-144.48;100.00;62369.91;4968503;28;20066;-71
2022/09/15 10:12:03;;;;;;;13.63;5.97;;;;;;;-144.48;100.00;62369.91;4970435;28;20393;-70
2022/09/15 10:14:39;;;;;;;12.87;6.70;;;;;;;-144.48;100.00;62369.91;4957364;28;20022;-70
2022/09/15 10:17:25;;;;;;;16.35;6.28;;;;;;;-144.48;100.00;62369.91;4970054;28;20046;-68
2022/09/15 10:19:56;;;;;;;16.73;7.18;;;;;;;-144.48;100.00;62369.91;4974136;28;20619;-66
2022/09/15 10:22:27;;;;;;;12.02;6.35;;;;;;;-144.48;100.00;62369.91;4973158;28;20114;-70
2022/09/15 10:24:53;;;;;;;15.85;6.05;;;;;;;-144.48;100.00;62369.91;4970082;28;20106;-69
2022/09/15 10:27:26;;;;;;;10.90;5.70;;;;;;;-144.48;100.00;62369.91;4969152;28;20130;-69
2022/09/15 10:29:52;;;;;;;11.30;5.00;;;;;;;-144.48;100.00;62369.91;4970196;28;20034;-69
2022/09/15 10:32:30;;;;;;;10.88;4.30;;;;;;;-144.48;100.00;62369.91;4970247;28;20558;-70
2022/09/15 10:35:21;;;;;;;10.73;4.45;;;;;;;-144.48;100.00;62369.91;4971221;28;20031;-69
2022/09/15 10:38:10;;;;;;;9.63;5.03;;;;;;;-144.48;100.00;62369.91;4975762;28;20051;-68
2022/09/15 10:40:45;;;;;;;9.77;3.10;;;;;;;-144.48;100.00;62369.91;4970038;28;20026;-68
2022/09/15 10:43:26;;;;;;;15.13;3.70;;;;;;;-144.48;100.00;62369.91;4969715;28;20170;-69
2022/09/15 10:46:02;;;;;;;8.75;3.55;;;;;;;-144.48;100.00;62369.91;4958302;28;20023;-67
2022/09/15 10:48:52;;;;;;;12.02;3.47;;;;;;;-144.48;100.00;62369.91;4969480;28;20035;-70
2022/09/15 10:51:33;;;;;;;9.20;3.53;;;;;;;-144.48;100.00;62369.91;4970922;28;20093;-67
2022/09/15 10:54:17;;;;;;;11.05;3.50;;;;;;;-144.48;100.00;62369.91;4957997;28;20023;-71
2022/09/15 10:56:47;;;;;;;12.85;4.20;;;;;;;-144.48;100.00;62369.91;4968659;28;20038;-68
2022/09/15 10:59:42;;;;;;;14.50;3.17;;;;;;;-144.48;100.00;62369.91;4969334;28;20030;-70
2022/09/15 11:02:38;;;;;;;7.15;3.42;;;;;;;-144.48;100.00;62369.91;4966762;28;20043;-69
2022/09/15 11:05:10;;;;;;;11.43;3.60;;;;;;;-144.48;100.00;62369.91;4977815;28;20065;-69
2022/09/15 11:07:53;;;;;;;9.70;3.13;;;;;;;-144.48;100.00;62369.91;4968144;28;20557;-71
2022/09/15 11:10:26;;;;;;;10.70;3.65;;;;;;;-144.48;100.00;62369.91;4969859;28;20022;-72